sensor_id;sensor_type;location;lat;lon;timestamp;P1;durP1;ratioP1;P2;durP2;ratioP2
27489;SDS011;14925;51.026;13.752;2023-07-08T00:00:49;9.43;;;6.13;;
27489;SDS011;14925;51.026;13.752;2023-07-08T00:03:14;10.73;;;5.57;;
27489;SDS011;14925;51.026;13.752;2023-07-08T00:05:40;10.10;;;5.78;;
27489;SDS011;14925;51.026;13.752;2023-07-08T00:08:08;9.70;;;5.20;;
27489;SDS011;14925;51.026;13.752;2023-07-08T00:10:36;10.85;;;4.88;;
27489;SDS011;14925;51.026;13.752;2023-07-08T00:13:02;8.70;;;5.03;;
27489;SDS011;14925;51.026;13.752;2023-07-08T00:15:28;7.40;;;5.35;;
27489;SDS011;14925;51.026;13.752;2023-07-08T00:17:54;7.05;;;4.95;;
27489;SDS011;14925;51.026;13.752;2023-07-08T00:20:31;7.88;;;4.68;;
27489;SDS011;14925;51.026;13.752;2023-07-08T00:22:58;9.32;;;4.75;;
27489;SDS011;14925;51.026;13.752;2023-07-08T00:25:26;7.05;;;5.20;;
27489;SDS011;14925;51.026;13.752;2023-07-08T00:27:52;8.13;;;5.15;;
27489;SDS011;14925;51.026;13.752;2023-07-08T00:30:22;7.90;;;4.72;;
27489;SDS011;14925;51.026;13.752;2023-07-08T00:32:49;7.80;;;4.85;;
27489;SDS011;14925;51.026;13.752;2023-07-08T00:35:19;7.97;;;4.63;;
27489;SDS011;14925;51.026;13.752;2023-07-08T00:37:46;6.75;;;4.63;;
27489;SDS011;14925;51.026;13.752;2023-07-08T00:40:13;8.40;;;4.63;;
27489;SDS011;14925;51.026;13.752;2023-07-08T00:42:40;6.63;;;4.90;;
27489;SDS011;14925;51.026;13.752;2023-07-08T00:45:56;6.22;;;4.68;;
27489;SDS011;14925;51.026;13.752;2023-07-08T00:48:28;9.88;;;5.00;;
27489;SDS011;14925;51.026;13.752;2023-07-08T00:50:53;6.78;;;4.30;;
27489;SDS011;14925;51.026;13.752;2023-07-08T00:55:57;6.45;;;3.88;;
27489;SDS011;14925;51.026;13.752;2023-07-08T00:58:31;6.63;;;4.55;;
27489;SDS011;14925;51.026;13.752;2023-07-08T01:01:05;6.85;;;4.68;;
27489;SDS011;14925;51.026;13.752;2023-07-08T01:03:32;6.53;;;4.10;;
27489;SDS011;14925;51.026;13.752;2023-07-08T01:06:01;6.85;;;4.68;;
27489;SDS011;14925;51.026;13.752;2023-07-08T01:08:30;9.10;;;4.30;;
27489;SDS011;14925;51.026;13.752;2023-07-08T01:10:59;6.00;;;4.43;;
27489;SDS011;14925;51.026;13.752;2023-07-08T01:13:26;6.03;;;4.22;;
27489;SDS011;14925;51.026;13.752;2023-07-08T01:15:52;7.50;;;4.60;;
27489;SDS011;14925;51.026;13.752;2023-07-08T01:18:18;7.28;;;4.50;;
27489;SDS011;14925;51.026;13.752;2023-07-08T01:20:49;6.47;;;4.68;;
27489;SDS011;14925;51.026;13.752;2023-07-08T01:23:15;8.48;;;4.57;;
27489;SDS011;14925;51.026;13.752;2023-07-08T01:25:42;5.95;;;4.40;;
27489;SDS011;14925;51.026;13.752;2023-07-08T01:28:09;7.63;;;4.20;;
27489;SDS011;14925;51.026;13.752;2023-07-08T01:30:35;6.78;;;4.30;;
27489;SDS011;14925;51.026;13.752;2023-07-08T01:33:04;7.97;;;4.40;;
27489;SDS011;14925;51.026;13.752;2023-07-08T01:35:35;7.47;;;3.95;;
27489;SDS011;14925;51.026;13.752;2023-07-08T01:38:01;6.05;;;3.90;;
27489;SDS011;14925;51.026;13.752;2023-07-08T01:40:29;6.38;;;4.30;;
27489;SDS011;14925;51.026;13.752;2023-07-08T01:42:59;7.10;;;4.25;;
27489;SDS011;14925;51.026;13.752;2023-07-08T01:45:26;5.35;;;3.90;;
27489;SDS011;14925;51.026;13.752;2023-07-08T01:48:05;6.97;;;4.10;;
27489;SDS011;14925;51.026;13.752;2023-07-08T01:50:34;6.47;;;4.28;;
27489;SDS011;14925;51.026;13.752;2023-07-08T01:53:02;8.07;;;3.97;;
27489;SDS011;14925;51.026;13.752;2023-07-08T01:55:34;5.80;;;4.03;;
27489;SDS011;14925;51.026;13.752;2023-07-08T01:57:59;6.68;;;4.50;;
27489;SDS011;14925;51.026;13.752;2023-07-08T02:00:24;8.07;;;4.45;;
27489;SDS011;14925;51.026;13.752;2023-07-08T02:02:50;6.45;;;4.20;;
27489;SDS011;14925;51.026;13.752;2023-07-08T02:05:15;10.63;;;4.30;;
27489;SDS011;14925;51.026;13.752;2023-07-08T02:07:44;9.43;;;4.20;;
27489;SDS011;14925;51.026;13.752;2023-07-08T02:10:09;7.53;;;4.22;;
27489;SDS011;14925;51.026;13.752;2023-07-08T02:12:34;4.65;;;3.85;;
27489;SDS011;14925;51.026;13.752;2023-07-08T02:15:00;7.80;;;4.00;;
27489;SDS011;14925;51.026;13.752;2023-07-08T02:17:26;7.50;;;4.30;;
27489;SDS011;14925;51.026;13.752;2023-07-08T02:19:54;5.60;;;4.15;;
27489;SDS011;14925;51.026;13.752;2023-07-08T02:22:19;7.30;;;4.30;;
27489;SDS011;14925;51.026;13.752;2023-07-08T02:24:45;7.68;;;3.97;;
27489;SDS011;14925;51.026;13.752;2023-07-08T02:27:10;11.00;;;4.65;;
27489;SDS011;14925;51.026;13.752;2023-07-08T02:29:36;6.95;;;4.80;;
27489;SDS011;14925;51.026;13.752;2023-07-08T02:32:03;9.90;;;4.80;;
27489;SDS011;14925;51.026;13.752;2023-07-08T02:34:29;5.53;;;4.00;;
27489;SDS011;14925;51.026;13.752;2023-07-08T02:36:54;6.13;;;3.83;;
27489;SDS011;14925;51.026;13.752;2023-07-08T02:39:21;5.57;;;4.20;;
27489;SDS011;14925;51.026;13.752;2023-07-08T02:41:47;5.88;;;4.30;;
27489;SDS011;14925;51.026;13.752;2023-07-08T02:44:12;8.07;;;4.38;;
27489;SDS011;14925;51.026;13.752;2023-07-08T02:46:37;6.40;;;4.20;;
27489;SDS011;14925;51.026;13.752;2023-07-08T02:49:03;5.82;;;4.05;;
27489;SDS011;14925;51.026;13.752;2023-07-08T02:51:29;6.75;;;4.20;;
27489;SDS011;14925;51.026;13.752;2023-07-08T02:53:54;9.75;;;4.57;;
27489;SDS011;14925;51.026;13.752;2023-07-08T02:56:20;7.40;;;4.53;;
27489;SDS011;14925;51.026;13.752;2023-07-08T02:58:47;6.45;;;4.63;;
27489;SDS011;14925;51.026;13.752;2023-07-08T03:01:13;9.07;;;4.13;;
27489;SDS011;14925;51.026;13.752;2023-07-08T03:03:42;6.20;;;4.30;;
27489;SDS011;14925;51.026;13.752;2023-07-08T03:06:08;8.00;;;4.70;;
27489;SDS011;14925;51.026;13.752;2023-07-08T03:08:34;7.88;;;4.65;;
27489;SDS011;14925;51.026;13.752;2023-07-08T03:11:00;6.72;;;4.13;;
27489;SDS011;14925;51.026;13.752;2023-07-08T03:13:27;5.93;;;4.32;;
27489;SDS011;14925;51.026;13.752;2023-07-08T03:15:53;8.75;;;4.50;;
27489;SDS011;14925;51.026;13.752;2023-07-08T03:18:22;7.20;;;4.65;;
27489;SDS011;14925;51.026;13.752;2023-07-08T03:20:49;6.15;;;4.60;;
27489;SDS011;14925;51.026;13.752;2023-07-08T03:23:15;6.85;;;4.18;;
27489;SDS011;14925;51.026;13.752;2023-07-08T03:25:40;7.25;;;4.30;;
27489;SDS011;14925;51.026;13.752;2023-07-08T03:28:06;7.13;;;4.38;;
27489;SDS011;14925;51.026;13.752;2023-07-08T03:30:33;6.35;;;4.63;;
27489;SDS011;14925;51.026;13.752;2023-07-08T03:32:58;9.27;;;4.05;;
27489;SDS011;14925;51.026;13.752;2023-07-08T03:35:24;6.03;;;3.95;;
27489;SDS011;14925;51.026;13.752;2023-07-08T03:37:50;8.20;;;4.47;;
27489;SDS011;14925;51.026;13.752;2023-07-08T03:40:16;10.30;;;4.03;;
27489;SDS011;14925;51.026;13.752;2023-07-08T03:42:42;10.75;;;4.72;;
27489;SDS011;14925;51.026;13.752;2023-07-08T03:45:07;6.53;;;4.18;;
27489;SDS011;14925;51.026;13.752;2023-07-08T03:47:33;9.73;;;4.50;;
27489;SDS011;14925;51.026;13.752;2023-07-08T03:49:58;6.10;;;4.05;;
27489;SDS011;14925;51.026;13.752;2023-07-08T03:52:24;7.25;;;4.40;;
27489;SDS011;14925;51.026;13.752;2023-07-08T03:54:49;7.82;;;4.30;;
27489;SDS011;14925;51.026;13.752;2023-07-08T03:57:14;6.63;;;3.85;;
27489;SDS011;14925;51.026;13.752;2023-07-08T03:59:40;8.73;;;4.15;;
27489;SDS011;14925;51.026;13.752;2023-07-08T04:02:05;7.03;;;4.25;;
27489;SDS011;14925;51.026;13.752;2023-07-08T04:04:36;5.38;;;4.38;;
27489;SDS011;14925;51.026;13.752;2023-07-08T04:07:02;8.35;;;4.18;;
27489;SDS011;14925;51.026;13.752;2023-07-08T04:09:31;5.90;;;4.30;;
27489;SDS011;14925;51.026;13.752;2023-07-08T04:11:57;6.97;;;4.00;;
27489;SDS011;14925;51.026;13.752;2023-07-08T04:14:23;7.07;;;4.35;;
27489;SDS011;14925;51.026;13.752;2023-07-08T04:16:55;6.82;;;4.05;;
27489;SDS011;14925;51.026;13.752;2023-07-08T04:19:22;8.57;;;4.60;;
27489;SDS011;14925;51.026;13.752;2023-07-08T04:21:48;4.57;;;3.90;;
27489;SDS011;14925;51.026;13.752;2023-07-08T04:24:14;7.38;;;4.30;;
27489;SDS011;14925;51.026;13.752;2023-07-08T04:26:40;5.10;;;4.00;;
27489;SDS011;14925;51.026;13.752;2023-07-08T04:29:12;10.15;;;4.38;;
27489;SDS011;14925;51.026;13.752;2023-07-08T04:31:40;6.57;;;3.97;;
27489;SDS011;14925;51.026;13.752;2023-07-08T04:34:06;6.82;;;4.15;;
27489;SDS011;14925;51.026;13.752;2023-07-08T04:36:32;6.15;;;3.97;;
27489;SDS011;14925;51.026;13.752;2023-07-08T04:38:58;8.13;;;4.35;;
27489;SDS011;14925;51.026;13.752;2023-07-08T04:41:25;6.80;;;4.18;;
27489;SDS011;14925;51.026;13.752;2023-07-08T04:43:53;8.77;;;4.38;;
27489;SDS011;14925;51.026;13.752;2023-07-08T04:46:25;8.93;;;4.30;;
27489;SDS011;14925;51.026;13.752;2023-07-08T04:48:52;6.72;;;4.38;;
27489;SDS011;14925;51.026;13.752;2023-07-08T04:51:17;11.05;;;4.20;;
27489;SDS011;14925;51.026;13.752;2023-07-08T04:53:44;8.63;;;4.13;;
27489;SDS011;14925;51.026;13.752;2023-07-08T04:56:09;8.65;;;4.20;;
27489;SDS011;14925;51.026;13.752;2023-07-08T04:58:35;7.85;;;4.03;;
27489;SDS011;14925;51.026;13.752;2023-07-08T05:01:00;7.40;;;4.03;;
27489;SDS011;14925;51.026;13.752;2023-07-08T05:03:28;9.90;;;3.92;;
27489;SDS011;14925;51.026;13.752;2023-07-08T05:05:54;8.25;;;3.90;;
27489;SDS011;14925;51.026;13.752;2023-07-08T05:08:19;7.72;;;3.80;;
27489;SDS011;14925;51.026;13.752;2023-07-08T05:10:44;6.88;;;4.00;;
27489;SDS011;14925;51.026;13.752;2023-07-08T05:13:10;6.32;;;3.72;;
27489;SDS011;14925;51.026;13.752;2023-07-08T05:15:35;6.75;;;4.00;;
27489;SDS011;14925;51.026;13.752;2023-07-08T05:18:01;8.98;;;4.30;;
27489;SDS011;14925;51.026;13.752;2023-07-08T05:20:32;7.47;;;3.70;;
27489;SDS011;14925;51.026;13.752;2023-07-08T05:23:00;6.22;;;3.60;;
27489;SDS011;14925;51.026;13.752;2023-07-08T05:25:31;9.32;;;3.88;;
27489;SDS011;14925;51.026;13.752;2023-07-08T05:27:57;7.65;;;3.70;;
27489;SDS011;14925;51.026;13.752;2023-07-08T05:30:23;9.45;;;3.70;;
27489;SDS011;14925;51.026;13.752;2023-07-08T05:32:48;7.30;;;4.20;;
27489;SDS011;14925;51.026;13.752;2023-07-08T05:35:13;7.03;;;3.50;;
27489;SDS011;14925;51.026;13.752;2023-07-08T05:37:39;7.05;;;3.95;;
27489;SDS011;14925;51.026;13.752;2023-07-08T05:40:05;5.45;;;3.30;;
27489;SDS011;14925;51.026;13.752;2023-07-08T05:42:32;5.32;;;3.45;;
27489;SDS011;14925;51.026;13.752;2023-07-08T05:44:58;4.90;;;3.60;;
27489;SDS011;14925;51.026;13.752;2023-07-08T05:47:26;6.22;;;3.92;;
27489;SDS011;14925;51.026;13.752;2023-07-08T05:49:52;5.60;;;3.50;;
27489;SDS011;14925;51.026;13.752;2023-07-08T05:52:17;7.93;;;3.33;;
27489;SDS011;14925;51.026;13.752;2023-07-08T05:54:42;5.95;;;3.55;;
27489;SDS011;14925;51.026;13.752;2023-07-08T05:57:10;5.03;;;3.58;;
27489;SDS011;14925;51.026;13.752;2023-07-08T05:59:38;7.43;;;3.72;;
27489;SDS011;14925;51.026;13.752;2023-07-08T06:02:04;4.97;;;3.50;;
27489;SDS011;14925;51.026;13.752;2023-07-08T06:04:31;4.90;;;3.60;;
27489;SDS011;14925;51.026;13.752;2023-07-08T06:06:57;5.45;;;3.95;;
27489;SDS011;14925;51.026;13.752;2023-07-08T06:09:25;4.47;;;3.50;;
27489;SDS011;14925;51.026;13.752;2023-07-08T06:11:53;6.80;;;3.45;;
27489;SDS011;14925;51.026;13.752;2023-07-08T06:14:18;5.55;;;2.97;;
27489;SDS011;14925;51.026;13.752;2023-07-08T06:16:44;5.45;;;3.25;;
27489;SDS011;14925;51.026;13.752;2023-07-08T06:19:09;5.93;;;3.50;;
27489;SDS011;14925;51.026;13.752;2023-07-08T06:21:37;11.20;;;3.45;;
27489;SDS011;14925;51.026;13.752;2023-07-08T06:24:05;4.80;;;3.33;;
27489;SDS011;14925;51.026;13.752;2023-07-08T06:26:31;4.50;;;3.70;;
27489;SDS011;14925;51.026;13.752;2023-07-08T06:29:00;7.75;;;3.38;;
27489;SDS011;14925;51.026;13.752;2023-07-08T06:31:28;6.57;;;3.30;;
27489;SDS011;14925;51.026;13.752;2023-07-08T06:33:53;4.70;;;3.10;;
27489;SDS011;14925;51.026;13.752;2023-07-08T06:36:19;7.05;;;3.45;;
27489;SDS011;14925;51.026;13.752;2023-07-08T06:38:44;5.38;;;3.45;;
27489;SDS011;14925;51.026;13.752;2023-07-08T06:41:10;5.88;;;3.40;;
27489;SDS011;14925;51.026;13.752;2023-07-08T06:43:44;4.25;;;3.75;;
27489;SDS011;14925;51.026;13.752;2023-07-08T06:46:13;6.55;;;2.90;;
27489;SDS011;14925;51.026;13.752;2023-07-08T06:48:38;5.35;;;3.50;;
27489;SDS011;14925;51.026;13.752;2023-07-08T06:51:03;5.60;;;3.10;;
27489;SDS011;14925;51.026;13.752;2023-07-08T06:53:31;6.60;;;3.25;;
27489;SDS011;14925;51.026;13.752;2023-07-08T06:55:57;6.55;;;3.47;;
27489;SDS011;14925;51.026;13.752;2023-07-08T06:58:23;4.65;;;3.30;;
27489;SDS011;14925;51.026;13.752;2023-07-08T07:00:50;4.95;;;3.40;;
27489;SDS011;14925;51.026;13.752;2023-07-08T07:03:18;5.85;;;3.35;;
27489;SDS011;14925;51.026;13.752;2023-07-08T07:05:44;5.07;;;3.58;;
27489;SDS011;14925;51.026;13.752;2023-07-08T07:08:09;6.45;;;3.35;;
27489;SDS011;14925;51.026;13.752;2023-07-08T07:10:35;5.43;;;3.25;;
27489;SDS011;14925;51.026;13.752;2023-07-08T07:13:00;8.38;;;3.38;;
27489;SDS011;14925;51.026;13.752;2023-07-08T07:15:44;8.75;;;3.15;;
27489;SDS011;14925;51.026;13.752;2023-07-08T07:18:10;4.85;;;3.10;;
27489;SDS011;14925;51.026;13.752;2023-07-08T07:20:36;8.82;;;3.55;;
27489;SDS011;14925;51.026;13.752;2023-07-08T07:23:09;5.53;;;3.10;;
27489;SDS011;14925;51.026;13.752;2023-07-08T07:25:35;9.40;;;3.00;;
27489;SDS011;14925;51.026;13.752;2023-07-08T07:28:00;6.40;;;3.08;;
27489;SDS011;14925;51.026;13.752;2023-07-08T07:30:28;4.93;;;3.35;;
27489;SDS011;14925;51.026;13.752;2023-07-08T07:33:02;8.00;;;3.45;;
27489;SDS011;14925;51.026;13.752;2023-07-08T07:35:30;5.85;;;3.55;;
27489;SDS011;14925;51.026;13.752;2023-07-08T07:37:58;4.07;;;3.20;;
27489;SDS011;14925;51.026;13.752;2023-07-08T07:40:25;6.93;;;3.58;;
27489;SDS011;14925;51.026;13.752;2023-07-08T07:42:53;3.95;;;3.30;;
27489;SDS011;14925;51.026;13.752;2023-07-08T07:45:18;5.50;;;3.58;;
27489;SDS011;14925;51.026;13.752;2023-07-08T07:47:47;5.82;;;3.45;;
27489;SDS011;14925;51.026;13.752;2023-07-08T07:50:12;4.82;;;3.40;;
27489;SDS011;14925;51.026;13.752;2023-07-08T07:52:38;8.95;;;3.20;;
27489;SDS011;14925;51.026;13.752;2023-07-08T07:55:03;6.07;;;3.20;;
27489;SDS011;14925;51.026;13.752;2023-07-08T07:57:29;7.07;;;3.80;;
27489;SDS011;14925;51.026;13.752;2023-07-08T07:59:54;4.63;;;3.35;;
27489;SDS011;14925;51.026;13.752;2023-07-08T08:02:20;4.15;;;3.45;;
27489;SDS011;14925;51.026;13.752;2023-07-08T08:04:45;9.45;;;3.72;;
27489;SDS011;14925;51.026;13.752;2023-07-08T08:07:11;5.88;;;3.30;;
27489;SDS011;14925;51.026;13.752;2023-07-08T08:09:37;4.28;;;3.50;;
27489;SDS011;14925;51.026;13.752;2023-07-08T08:12:03;6.28;;;3.70;;
27489;SDS011;14925;51.026;13.752;2023-07-08T08:14:32;6.85;;;3.65;;
27489;SDS011;14925;51.026;13.752;2023-07-08T08:16:57;10.25;;;4.25;;
27489;SDS011;14925;51.026;13.752;2023-07-08T08:19:23;8.10;;;4.30;;
27489;SDS011;14925;51.026;13.752;2023-07-08T08:21:48;6.03;;;3.72;;
27489;SDS011;14925;51.026;13.752;2023-07-08T08:24:13;5.72;;;3.90;;
27489;SDS011;14925;51.026;13.752;2023-07-08T08:26:39;6.47;;;3.83;;
27489;SDS011;14925;51.026;13.752;2023-07-08T08:29:07;7.25;;;4.22;;
27489;SDS011;14925;51.026;13.752;2023-07-08T08:31:33;6.28;;;3.53;;
27489;SDS011;14925;51.026;13.752;2023-07-08T08:33:58;7.97;;;3.78;;
27489;SDS011;14925;51.026;13.752;2023-07-08T08:36:23;6.22;;;3.50;;
27489;SDS011;14925;51.026;13.752;2023-07-08T08:38:49;6.20;;;3.25;;
27489;SDS011;14925;51.026;13.752;2023-07-08T08:41:19;10.30;;;4.00;;
27489;SDS011;14925;51.026;13.752;2023-07-08T08:43:47;6.38;;;3.80;;
27489;SDS011;14925;51.026;13.752;2023-07-08T08:51:23;5.25;;;3.50;;
27489;SDS011;14925;51.026;13.752;2023-07-08T08:53:50;5.13;;;3.67;;
27489;SDS011;14925;51.026;13.752;2023-07-08T08:58:44;6.20;;;3.80;;
27489;SDS011;14925;51.026;13.752;2023-07-08T09:01:11;7.90;;;4.43;;
27489;SDS011;14925;51.026;13.752;2023-07-08T09:03:48;7.28;;;3.95;;
27489;SDS011;14925;51.026;13.752;2023-07-08T09:06:25;9.38;;;4.20;;
27489;SDS011;14925;51.026;13.752;2023-07-08T09:08:52;10.00;;;4.05;;
27489;SDS011;14925;51.026;13.752;2023-07-08T09:13:58;6.05;;;3.88;;
27489;SDS011;14925;51.026;13.752;2023-07-08T09:19:32;8.32;;;4.03;;
27489;SDS011;14925;51.026;13.752;2023-07-08T09:27:46;5.07;;;3.30;;
27489;SDS011;14925;51.026;13.752;2023-07-08T09:30:15;3.85;;;3.45;;
27489;SDS011;14925;51.026;13.752;2023-07-08T09:32:41;4.63;;;3.65;;
27489;SDS011;14925;51.026;13.752;2023-07-08T09:35:07;7.13;;;3.55;;
27489;SDS011;14925;51.026;13.752;2023-07-08T09:37:37;5.30;;;3.10;;
27489;SDS011;14925;51.026;13.752;2023-07-08T09:40:49;5.13;;;3.15;;
27489;SDS011;14925;51.026;13.752;2023-07-08T09:43:02;5.05;;;3.40;;
27489;SDS011;14925;51.026;13.752;2023-07-08T09:45:29;4.10;;;3.30;;
27489;SDS011;14925;51.026;13.752;2023-07-08T09:48:13;4.97;;;3.45;;
27489;SDS011;14925;51.026;13.752;2023-07-08T09:50:42;5.57;;;3.53;;
27489;SDS011;14925;51.026;13.752;2023-07-08T09:53:11;6.68;;;3.60;;
27489;SDS011;14925;51.026;13.752;2023-07-08T09:55:38;5.35;;;3.60;;
27489;SDS011;14925;51.026;13.752;2023-07-08T09:58:03;6.38;;;3.22;;
27489;SDS011;14925;51.026;13.752;2023-07-08T10:00:33;6.72;;;3.53;;
27489;SDS011;14925;51.026;13.752;2023-07-08T10:03:02;5.70;;;3.92;;
27489;SDS011;14925;51.026;13.752;2023-07-08T10:05:32;6.07;;;3.33;;
27489;SDS011;14925;51.026;13.752;2023-07-08T10:07:59;5.07;;;3.60;;
27489;SDS011;14925;51.026;13.752;2023-07-08T10:10:35;7.75;;;3.80;;
27489;SDS011;14925;51.026;13.752;2023-07-08T10:13:03;5.47;;;3.40;;
27489;SDS011;14925;51.026;13.752;2023-07-08T10:17:54;5.20;;;3.33;;
27489;SDS011;14925;51.026;13.752;2023-07-08T10:20:20;4.63;;;3.20;;
27489;SDS011;14925;51.026;13.752;2023-07-08T10:22:57;5.03;;;3.22;;
27489;SDS011;14925;51.026;13.752;2023-07-08T10:25:32;5.53;;;3.90;;
27489;SDS011;14925;51.026;13.752;2023-07-08T10:28:16;5.57;;;3.20;;
27489;SDS011;14925;51.026;13.752;2023-07-08T10:38:50;6.68;;;3.50;;
27489;SDS011;14925;51.026;13.752;2023-07-08T10:41:45;5.55;;;4.00;;
27489;SDS011;14925;51.026;13.752;2023-07-08T10:50:22;4.75;;;3.25;;
27489;SDS011;14925;51.026;13.752;2023-07-08T10:55:47;7.75;;;3.67;;
27489;SDS011;14925;51.026;13.752;2023-07-08T10:58:37;7.97;;;3.10;;
27489;SDS011;14925;51.026;13.752;2023-07-08T11:01:28;7.93;;;3.60;;
27489;SDS011;14925;51.026;13.752;2023-07-08T11:09:18;6.28;;;3.60;;
27489;SDS011;14925;51.026;13.752;2023-07-08T11:12:04;12.30;;;3.72;;
27489;SDS011;14925;51.026;13.752;2023-07-08T11:17:58;5.15;;;3.08;;
27489;SDS011;14925;51.026;13.752;2023-07-08T11:23:08;4.60;;;3.50;;
27489;SDS011;14925;51.026;13.752;2023-07-08T11:25:40;4.22;;;3.08;;
27489;SDS011;14925;51.026;13.752;2023-07-08T11:28:08;8.35;;;3.80;;
27489;SDS011;14925;51.026;13.752;2023-07-08T11:30:38;5.03;;;3.25;;
27489;SDS011;14925;51.026;13.752;2023-07-08T11:33:09;7.53;;;3.45;;
27489;SDS011;14925;51.026;13.752;2023-07-08T11:35:43;3.90;;;3.17;;
27489;SDS011;14925;51.026;13.752;2023-07-08T11:38:12;6.47;;;3.55;;
27489;SDS011;14925;51.026;13.752;2023-07-08T11:40:56;6.55;;;3.70;;
27489;SDS011;14925;51.026;13.752;2023-07-08T11:43:27;4.65;;;3.50;;
27489;SDS011;14925;51.026;13.752;2023-07-08T11:46:02;7.75;;;3.30;;
27489;SDS011;14925;51.026;13.752;2023-07-08T11:48:30;6.65;;;3.53;;
27489;SDS011;14925;51.026;13.752;2023-07-08T11:50:57;5.00;;;3.38;;
27489;SDS011;14925;51.026;13.752;2023-07-08T11:55:58;4.25;;;3.30;;
27489;SDS011;14925;51.026;13.752;2023-07-08T11:58:29;10.35;;;3.78;;
27489;SDS011;14925;51.026;13.752;2023-07-08T12:01:03;6.22;;;3.30;;
27489;SDS011;14925;51.026;13.752;2023-07-08T12:08:52;6.22;;;3.38;;
27489;SDS011;14925;51.026;13.752;2023-07-08T12:11:26;4.78;;;3.42;;
27489;SDS011;14925;51.026;13.752;2023-07-08T12:13:55;5.80;;;3.40;;
27489;SDS011;14925;51.026;13.752;2023-07-08T12:16:20;10.27;;;3.55;;
27489;SDS011;14925;51.026;13.752;2023-07-08T12:18:46;4.30;;;3.30;;
27489;SDS011;14925;51.026;13.752;2023-07-08T12:21:12;4.18;;;3.38;;
27489;SDS011;14925;51.026;13.752;2023-07-08T12:23:43;4.00;;;3.40;;
27489;SDS011;14925;51.026;13.752;2023-07-08T12:26:10;6.10;;;3.67;;
27489;SDS011;14925;51.026;13.752;2023-07-08T12:28:36;4.07;;;3.20;;
27489;SDS011;14925;51.026;13.752;2023-07-08T12:31:02;6.20;;;3.50;;
27489;SDS011;14925;51.026;13.752;2023-07-08T12:33:28;4.68;;;3.45;;
27489;SDS011;14925;51.026;13.752;2023-07-08T12:35:56;6.20;;;3.55;;
27489;SDS011;14925;51.026;13.752;2023-07-08T12:40:55;6.90;;;3.40;;
27489;SDS011;14925;51.026;13.752;2023-07-08T12:43:24;4.07;;;3.33;;
27489;SDS011;14925;51.026;13.752;2023-07-08T12:45:51;4.88;;;3.15;;
27489;SDS011;14925;51.026;13.752;2023-07-08T12:48:16;4.35;;;3.50;;
27489;SDS011;14925;51.026;13.752;2023-07-08T12:50:41;5.22;;;3.58;;
27489;SDS011;14925;51.026;13.752;2023-07-08T12:53:07;4.82;;;3.30;;
27489;SDS011;14925;51.026;13.752;2023-07-08T12:55:35;7.88;;;3.40;;
27489;SDS011;14925;51.026;13.752;2023-07-08T12:58:03;4.53;;;3.28;;
27489;SDS011;14925;51.026;13.752;2023-07-08T13:00:34;6.53;;;3.60;;
27489;SDS011;14925;51.026;13.752;2023-07-08T13:03:05;4.78;;;3.83;;
27489;SDS011;14925;51.026;13.752;2023-07-08T13:05:33;7.13;;;3.50;;
27489;SDS011;14925;51.026;13.752;2023-07-08T13:08:02;6.80;;;3.55;;
27489;SDS011;14925;51.026;13.752;2023-07-08T13:10:28;5.20;;;3.40;;
27489;SDS011;14925;51.026;13.752;2023-07-08T13:12:56;5.25;;;3.30;;
27489;SDS011;14925;51.026;13.752;2023-07-08T13:15:25;5.97;;;3.90;;
27489;SDS011;14925;51.026;13.752;2023-07-08T13:17:58;4.47;;;3.42;;
27489;SDS011;14925;51.026;13.752;2023-07-08T13:20:23;8.32;;;3.67;;
27489;SDS011;14925;51.026;13.752;2023-07-08T13:22:54;4.88;;;3.45;;
27489;SDS011;14925;51.026;13.752;2023-07-08T13:25:26;6.85;;;3.45;;
27489;SDS011;14925;51.026;13.752;2023-07-08T13:27:57;8.15;;;3.50;;
27489;SDS011;14925;51.026;13.752;2023-07-08T13:30:25;5.88;;;3.63;;
27489;SDS011;14925;51.026;13.752;2023-07-08T13:32:53;4.22;;;3.50;;
27489;SDS011;14925;51.026;13.752;2023-07-08T13:35:25;4.13;;;3.10;;
27489;SDS011;14925;51.026;13.752;2023-07-08T13:37:54;5.78;;;3.50;;
27489;SDS011;14925;51.026;13.752;2023-07-08T13:40:20;4.80;;;3.50;;
27489;SDS011;14925;51.026;13.752;2023-07-08T13:42:47;6.82;;;3.65;;
27489;SDS011;14925;51.026;13.752;2023-07-08T13:45:14;4.80;;;3.05;;
27489;SDS011;14925;51.026;13.752;2023-07-08T13:47:57;4.43;;;3.72;;
27489;SDS011;14925;51.026;13.752;2023-07-08T13:50:28;4.65;;;3.28;;
27489;SDS011;14925;51.026;13.752;2023-07-08T13:53:00;4.68;;;3.33;;
27489;SDS011;14925;51.026;13.752;2023-07-08T13:55:26;4.78;;;3.92;;
27489;SDS011;14925;51.026;13.752;2023-07-08T13:57:57;6.43;;;3.53;;
27489;SDS011;14925;51.026;13.752;2023-07-08T14:00:24;7.07;;;3.67;;
27489;SDS011;14925;51.026;13.752;2023-07-08T14:02:50;4.90;;;3.40;;
27489;SDS011;14925;51.026;13.752;2023-07-08T14:05:15;4.00;;;3.20;;
27489;SDS011;14925;51.026;13.752;2023-07-08T14:07:45;4.72;;;3.28;;
27489;SDS011;14925;51.026;13.752;2023-07-08T14:10:11;7.28;;;3.40;;
27489;SDS011;14925;51.026;13.752;2023-07-08T14:12:37;4.13;;;3.42;;
27489;SDS011;14925;51.026;13.752;2023-07-08T14:15:03;4.20;;;3.20;;
27489;SDS011;14925;51.026;13.752;2023-07-08T14:17:28;5.68;;;3.50;;
27489;SDS011;14925;51.026;13.752;2023-07-08T14:19:54;4.13;;;3.10;;
27489;SDS011;14925;51.026;13.752;2023-07-08T14:22:21;6.78;;;3.55;;
27489;SDS011;14925;51.026;13.752;2023-07-08T14:24:54;4.60;;;3.45;;
27489;SDS011;14925;51.026;13.752;2023-07-08T14:27:21;4.85;;;3.50;;
27489;SDS011;14925;51.026;13.752;2023-07-08T14:29:47;5.63;;;3.38;;
27489;SDS011;14925;51.026;13.752;2023-07-08T14:34:52;6.43;;;3.55;;
27489;SDS011;14925;51.026;13.752;2023-07-08T14:37:19;7.13;;;3.42;;
27489;SDS011;14925;51.026;13.752;2023-07-08T14:39:45;4.82;;;3.88;;
27489;SDS011;14925;51.026;13.752;2023-07-08T14:42:11;5.25;;;3.05;;
27489;SDS011;14925;51.026;13.752;2023-07-08T14:44:42;6.65;;;3.67;;
27489;SDS011;14925;51.026;13.752;2023-07-08T14:47:12;4.32;;;3.25;;
27489;SDS011;14925;51.026;13.752;2023-07-08T14:49:40;4.72;;;3.50;;
27489;SDS011;14925;51.026;13.752;2023-07-08T14:52:12;4.85;;;3.25;;
27489;SDS011;14925;51.026;13.752;2023-07-08T14:54:37;4.43;;;3.20;;
27489;SDS011;14925;51.026;13.752;2023-07-08T14:57:03;4.25;;;3.10;;
27489;SDS011;14925;51.026;13.752;2023-07-08T14:59:33;9.38;;;3.42;;
27489;SDS011;14925;51.026;13.752;2023-07-08T15:01:59;6.35;;;3.65;;
27489;SDS011;14925;51.026;13.752;2023-07-08T15:04:26;7.03;;;3.28;;
27489;SDS011;14925;51.026;13.752;2023-07-08T15:06:52;7.97;;;3.50;;
27489;SDS011;14925;51.026;13.752;2023-07-08T15:09:18;5.00;;;3.42;;
27489;SDS011;14925;51.026;13.752;2023-07-08T15:11:43;4.40;;;3.42;;
27489;SDS011;14925;51.026;13.752;2023-07-08T15:14:10;7.18;;;3.42;;
27489;SDS011;14925;51.026;13.752;2023-07-08T15:16:47;4.68;;;3.53;;
27489;SDS011;14925;51.026;13.752;2023-07-08T15:19:13;4.45;;;3.60;;
27489;SDS011;14925;51.026;13.752;2023-07-08T15:21:39;4.47;;;3.60;;
27489;SDS011;14925;51.026;13.752;2023-07-08T15:24:09;7.85;;;3.70;;
27489;SDS011;14925;51.026;13.752;2023-07-08T15:26:42;6.55;;;4.00;;
27489;SDS011;14925;51.026;13.752;2023-07-08T15:29:12;4.75;;;3.50;;
27489;SDS011;14925;51.026;13.752;2023-07-08T15:31:40;5.50;;;3.33;;
27489;SDS011;14925;51.026;13.752;2023-07-08T15:34:13;5.70;;;3.72;;
27489;SDS011;14925;51.026;13.752;2023-07-08T15:36:40;4.18;;;3.08;;
27489;SDS011;14925;51.026;13.752;2023-07-08T15:39:05;11.30;;;4.32;;
27489;SDS011;14925;51.026;13.752;2023-07-08T15:41:31;26.65;;;5.78;;
27489;SDS011;14925;51.026;13.752;2023-07-08T15:43:58;6.78;;;3.85;;